Time;durP1;ratioP1;P1;durP2;ratioP2;P2;SDS_P1;SDS_P2;PMS_P1;PMS_P2;Temp;Humidity;BMP_temperature;BMP_pressure;BME280_temperature;BME280_humidity;BME280_pressure;Samples;Min_cycle;Max_cycle;Signal;HPM_P1;HPM_P2
2022/03/21 00:01:23;;;;;;;18.63;15.55;;;6.90;43.50;;;;;;5020144;28;20821;-90
2022/03/21 00:03:49;;;;;;;19.20;16.05;;;6.90;43.50;;;;;;5028579;28;20060;-84
2022/03/21 00:06:15;;;;;;;18.70;15.68;;;6.90;43.50;;;;;;5017553;28;20061;-87
2022/03/21 00:08:43;;;;;;;20.60;16.15;;;6.90;43.50;;;;;;5020692;28;20038;-86
2022/03/21 00:11:10;;;;;;;19.08;15.18;;;6.90;43.50;;;;;;5026941;28;20030;-87
2022/03/21 00:13:36;;;;;;;18.83;16.02;;;6.90;43.50;;;;;;5018160;28;20392;-85
2022/03/21 00:16:02;;;;;;;22.73;16.67;;;6.90;43.50;;;;;;5031921;28;20211;-85
2022/03/21 00:18:28;;;;;;;19.98;16.58;;;6.80;43.40;;;;;;5024735;28;20033;-86
2022/03/21 00:20:55;;;;;;;20.48;16.42;;;6.80;43.40;;;;;;5019913;28;20069;-89
2022/03/21 00:23:22;;;;;;;17.65;15.38;;;6.80;43.40;;;;;;5026919;28;20037;-91
2022/03/21 00:25:48;;;;;;;22.52;16.98;;;6.80;43.40;;;;;;5039050;28;20026;-91
2022/03/21 00:28:14;;;;;;;24.20;16.88;;;6.80;43.40;;;;;;5025778;28;20037;-90
2022/03/21 00:30:42;;;;;;;18.73;15.77;;;6.70;43.20;;;;;;5015897;28;20026;-89
2022/03/21 00:33:09;;;;;;;22.35;17.15;;;6.80;43.40;;;;;;5017709;28;20396;-88
2022/03/21 00:35:35;;;;;;;19.35;16.90;;;6.70;43.20;;;;;;5040585;28;20033;-89
2022/03/21 00:38:02;;;;;;;21.63;16.63;;;6.70;43.20;;;;;;5042469;28;20038;-88
2022/03/21 00:40:29;;;;;;;22.13;18.00;;;6.70;43.30;;;;;;5026683;28;20032;-88
2022/03/21 00:42:56;;;;;;;21.58;16.73;;;6.70;43.90;;;;;;5026208;28;20048;-90
2022/03/21 00:45:26;;;;;;;17.88;15.93;;;6.60;43.10;;;;;;5024405;28;20032;-94
2022/03/21 00:47:54;;;;;;;21.30;17.17;;;6.60;43.10;;;;;;5044876;28;20058;-91
2022/03/21 00:50:24;;;;;;;19.70;16.75;;;6.60;43.10;;;;;;5027159;28;20038;-92
2022/03/21 00:52:55;;;;;;;20.88;16.58;;;6.60;43.10;;;;;;5028736;28;20064;-91
2022/03/21 00:55:26;;;;;;;21.33;16.63;;;6.60;43.10;;;;;;5035695;28;20026;-89
2022/03/21 00:57:53;;;;;;;18.15;16.20;;;6.60;43.10;;;;;;5022775;28;20185;-87
2022/03/21 01:00:21;;;;;;;20.38;16.88;;;6.60;43.10;;;;;;5023444;28;20070;-87
2022/03/21 01:02:48;;;;;;;23.25;16.98;;;6.60;43.10;;;;;;5020943;28;20038;-84
2022/03/21 01:05:14;;;;;;;21.88;17.25;;;6.60;43.10;;;;;;5024705;28;20104;-87
2022/03/21 01:07:41;;;;;;;21.50;17.23;;;6.50;42.90;;;;;;5036335;28;20128;-86
2022/03/21 01:10:09;;;;;;;21.52;16.75;;;6.50;42.90;;;;;;5027083;28;20029;-86
2022/03/21 01:12:35;;;;;;;20.85;17.15;;;6.60;43.10;;;;;;5037292;28;20443;-86
2022/03/21 01:15:01;;;;;;;20.33;16.23;;;6.50;42.90;;;;;;5024396;28;20037;-87
2022/03/21 01:17:28;;;;;;;20.50;16.88;;;6.50;42.90;;;;;;5024882;28;20030;-85
2022/03/21 01:19:54;;;;;;;19.30;16.05;;;6.50;42.90;;;;;;5007296;28;20243;-86
2022/03/21 01:22:20;;;;;;;19.88;17.13;;;6.50;42.90;;;;;;5047344;28;20107;-87
2022/03/21 01:24:46;;;;;;;23.15;16.70;;;6.50;42.90;;;;;;5040291;28;20061;-89
2022/03/21 01:27:12;;;;;;;21.92;16.77;;;6.50;42.90;;;;;;5029283;28;20041;-91
2022/03/21 01:29:38;;;;;;;18.60;16.40;;;6.50;42.90;;;;;;5024066;28;20464;-89
2022/03/21 01:32:04;;;;;;;19.25;16.55;;;6.50;42.90;;;;;;5029211;28;20456;-91
2022/03/21 01:34:30;;;;;;;18.52;16.02;;;6.50;42.90;;;;;;5037032;28;20025;-87
2022/03/21 01:36:56;;;;;;;17.95;15.93;;;6.50;42.90;;;;;;5045449;28;20049;-88
2022/03/21 01:39:22;;;;;;;19.33;15.68;;;6.40;42.70;;;;;;5039614;28;20046;-88
2022/03/21 01:41:48;;;;;;;19.20;15.57;;;6.40;42.70;;;;;;5057438;28;20053;-87
2022/03/21 01:44:16;;;;;;;20.85;16.73;;;6.40;42.70;;;;;;5043005;28;20053;-88
2022/03/21 01:46:41;;;;;;;19.75;16.98;;;6.40;42.70;;;;;;5037492;28;20157;-88
2022/03/21 01:49:09;;;;;;;23.90;16.85;;;6.30;42.50;;;;;;5041942;28;20041;-86
2022/03/21 01:51:40;;;;;;;21.40;16.63;;;6.40;42.80;;;;;;5044315;28;20044;-90
2022/03/21 01:56:52;;;;;;;19.88;15.20;;;6.30;42.60;;;;;;5041327;28;20041;-87
2022/03/21 01:59:21;;;;;;;21.15;16.80;;;6.30;42.60;;;;;;5037499;28;20087;-93
2022/03/21 02:01:48;;;;;;;21.05;16.42;;;6.30;42.50;;;;;;5049000;28;20382;-91
2022/03/21 02:04:15;;;;;;;17.52;15.63;;;6.30;42.50;;;;;;5023842;28;20032;-93
2022/03/21 02:06:42;;;;;;;21.67;16.48;;;6.30;42.50;;;;;;5030888;28;20550;-90
2022/03/21 02:09:09;;;;;;;18.73;15.15;;;6.30;42.60;;;;;;5025467;28;20044;-88
2022/03/21 02:11:36;;;;;;;18.13;15.85;;;6.30;42.60;;;;;;5042552;28;20116;-91
2022/03/21 02:14:05;;;;;;;18.52;15.00;;;6.30;42.60;;;;;;5030405;28;20075;-91
2022/03/21 02:16:33;;;;;;;19.13;15.13;;;6.30;42.60;;;;;;5023218;28;20041;-89
2022/03/21 02:19:02;;;;;;;19.77;16.50;;;6.20;42.40;;;;;;5035126;28;20057;-89
2022/03/21 02:21:43;;;;;;;18.92;16.70;;;6.20;42.40;;;;;;5026537;28;20042;-87
2022/03/21 02:24:19;;;;;;;19.80;16.70;;;6.20;42.40;;;;;;5016316;28;20446;-89
2022/03/21 02:26:45;;;;;;;20.55;16.73;;;6.20;42.40;;;;;;5029725;28;20036;-88
2022/03/21 02:29:13;;;;;;;21.77;17.27;;;6.20;42.50;;;;;;5026956;28;20109;-88
2022/03/21 02:31:39;;;;;;;23.10;16.98;;;6.20;42.50;;;;;;5019879;28;20029;-88
2022/03/21 02:34:06;;;;;;;20.08;16.70;;;6.20;42.60;;;;;;5022838;28;20021;-89
2022/03/21 02:36:32;;;;;;;19.55;15.82;;;6.20;42.60;;;;;;5021306;28;20042;-88
2022/03/21 02:38:59;;;;;;;20.27;16.75;;;6.10;42.50;;;;;;5025249;28;20095;-89
2022/03/21 02:41:24;;;;;;;21.70;17.02;;;6.10;42.50;;;;;;5018018;28;20033;-88
2022/03/21 02:43:52;;;;;;;18.98;15.23;;;6.10;42.50;;;;;;5034958;28;20045;-89
2022/03/21 02:46:18;;;;;;;22.17;17.50;;;6.10;42.50;;;;;;5027176;28;20045;-89
2022/03/21 02:48:46;;;;;;;20.98;16.40;;;6.10;42.50;;;;;;5036036;28;20432;-90
2022/03/21 02:51:14;;;;;;;20.65;17.38;;;6.20;42.70;;;;;;5030411;28;20033;-87
2022/03/21 02:53:42;;;;;;;20.88;16.83;;;6.10;42.50;;;;;;5027408;28;20025;-90
2022/03/21 02:56:08;;;;;;;21.08;16.90;;;6.20;42.70;;;;;;5035364;28;20047;-89
2022/03/21 02:58:34;;;;;;;23.48;17.38;;;6.20;42.70;;;;;;5037243;28;20063;-90
2022/03/21 03:01:20;;;;;;;20.70;16.55;;;6.20;42.70;;;;;;5031122;28;20060;-84
2022/03/21 03:03:46;;;;;;;20.85;16.85;;;6.20;42.70;;;;;;5026944;28;20088;-87
2022/03/21 03:06:13;;;;;;;19.52;16.30;;;6.20;42.70;;;;;;5050623;28;20140;-88
2022/03/21 03:08:41;;;;;;;22.60;17.98;;;6.20;43.30;;;;;;5024667;28;20108;-87
2022/03/21 03:11:07;;;;;;;20.83;16.23;;;6.10;42.60;;;;;;5029419;28;20087;-87
2022/03/21 03:13:33;;;;;;;22.55;17.65;;;6.10;42.60;;;;;;5027873;28;20033;-86
2022/03/21 03:15:59;;;;;;;21.42;16.42;;;6.20;42.80;;;;;;5029626;28;20477;-87
2022/03/21 03:18:25;;;;;;;21.20;16.60;;;6.10;42.70;;;;;;5027082;28;20071;-87
2022/03/21 03:20:53;;;;;;;20.00;16.25;;;6.10;42.70;;;;;;5043968;28;20503;-87
2022/03/21 03:23:22;;;;;;;21.50;16.42;;;6.10;42.70;;;;;;5028653;28;20088;-86
2022/03/21 03:25:55;;;;;;;20.30;16.50;;;6.10;42.80;;;;;;5027935;28;20044;-88
2022/03/21 03:28:21;;;;;;;24.55;18.63;;;6.10;42.80;;;;;;5038113;28;20033;-87
2022/03/21 03:30:48;;;;;;;19.17;16.17;;;6.00;42.60;;;;;;5030495;28;20039;-89
2022/03/21 03:33:14;;;;;;;22.23;17.70;;;6.10;42.80;;;;;;5031926;28;20433;-90
2022/03/21 03:35:40;;;;;;;23.40;18.80;;;6.00;42.70;;;;;;5020222;28;20034;-91
2022/03/21 03:38:07;;;;;;;21.35;17.27;;;6.00;42.70;;;;;;5026364;28;20057;-88
2022/03/21 03:40:33;;;;;;;22.20;17.38;;;6.00;42.80;;;;;;5029686;28;20432;-90
2022/03/21 03:42:59;;;;;;;23.30;19.15;;;6.00;42.80;;;;;;5038420;28;20041;-91
2022/03/21 03:45:25;;;;;;;26.05;18.23;;;6.00;42.80;;;;;;5030758;28;20025;-90
2022/03/21 03:47:52;;;;;;;23.70;19.52;;;6.00;42.80;;;;;;5029848;28;20512;-88
2022/03/21 03:50:18;;;;;;;25.85;19.80;;;6.00;42.90;;;;;;5028034;28;20036;-87
2022/03/21 03:52:46;;;;;;;25.40;19.75;;;6.00;42.90;;;;;;5044242;28;20032;-88
2022/03/21 03:55:17;;;;;;;22.85;19.00;;;6.00;42.80;;;;;;5010835;28;20071;-88
2022/03/21 03:57:44;;;;;;;24.90;18.75;;;6.00;42.80;;;;;;5033230;28;20040;-88
2022/03/21 04:00:12;;;;;;;25.88;18.85;;;6.00;42.90;;;;;;5045317;28;20032;-86
2022/03/21 04:05:26;;;;;;;25.00;19.85;;;6.00;42.90;;;;;;5042890;28;20036;-87
2022/03/21 04:07:52;;;;;;;25.10;20.58;;;6.00;42.80;;;;;;5040391;28;20033;-86
2022/03/21 04:10:21;;;;;;;25.05;19.60;;;6.00;42.80;;;;;;5022396;28;20076;-86
2022/03/21 04:12:48;;;;;;;24.52;19.60;;;6.00;42.90;;;;;;5026740;28;20457;-86
2022/03/21 04:15:15;;;;;;;23.00;19.63;;;6.00;42.90;;;;;;5019711;28;20040;-87
2022/03/21 04:17:41;;;;;;;26.17;19.15;;;6.10;43.10;;;;;;5026925;28;20090;-88
2022/03/21 04:20:08;;;;;;;23.88;19.63;;;6.00;42.90;;;;;;5027031;28;20052;-87
2022/03/21 04:22:35;;;;;;;27.20;20.88;;;6.10;43.10;;;;;;5028220;28;20566;-90
2022/03/21 04:25:03;;;;;;;26.13;20.08;;;6.10;43.30;;;;;;5026774;28;20105;-90
2022/03/21 04:27:29;;;;;;;27.48;21.17;;;6.10;43.10;;;;;;5026841;28;20096;-89
2022/03/21 04:29:55;;;;;;;26.33;21.15;;;6.10;43.10;;;;;;5024964;28;20508;-90
2022/03/21 04:32:21;;;;;;;26.25;21.80;;;6.10;43.20;;;;;;5026267;28;20045;-90
2022/03/21 04:34:47;;;;;;;26.38;21.27;;;6.10;43.20;;;;;;5042665;28;20507;-87
2022/03/21 04:37:13;;;;;;;25.23;21.08;;;6.10;43.20;;;;;;5020894;28;20561;-86
2022/03/21 04:39:38;;;;;;;27.08;20.85;;;6.20;43.40;;;;;;5026181;28;20029;-86
2022/03/21 04:42:05;;;;;;;24.00;20.98;;;6.10;43.20;;;;;;5039273;28;20245;-86
2022/03/21 04:44:30;;;;;;;28.83;22.88;;;6.20;43.40;;;;;;5027343;28;20040;-89
2022/03/21 04:46:56;;;;;;;28.45;22.80;;;6.20;43.40;;;;;;5023470;28;20413;-88
2022/03/21 04:49:22;;;;;;;34.38;25.30;;;6.20;43.40;;;;;;5026208;28;20026;-88
2022/03/21 04:51:48;;;;;;;31.55;24.70;;;6.20;43.50;;;;;;5028169;28;20083;-88
2022/03/21 04:54:14;;;;;;;31.00;24.58;;;6.20;43.40;;;;;;5050275;28;20029;-89
2022/03/21 04:56:40;;;;;;;31.25;24.73;;;6.20;43.40;;;;;;5041358;28;20033;-88
2022/03/21 04:59:07;;;;;;;32.28;25.30;;;6.30;43.60;;;;;;5027105;28;20033;-90
2022/03/21 05:01:34;;;;;;;37.08;26.65;;;6.30;43.60;;;;;;5028329;28;20520;-89
2022/03/21 05:04:00;;;;;;;34.13;26.25;;;6.30;43.60;;;;;;5028962;28;20064;-90
2022/03/21 05:06:26;;;;;;;34.40;27.38;;;6.30;43.60;;;;;;5026276;28;20103;-89
2022/03/21 05:08:51;;;;;;;35.35;27.50;;;6.40;43.80;;;;;;5012365;28;20432;-90
2022/03/21 05:11:17;;;;;;;35.00;27.40;;;6.40;43.80;;;;;;5028065;28;20032;-90
2022/03/21 05:13:43;;;;;;;34.10;26.98;;;6.40;43.90;;;;;;5019200;28;20522;-90
2022/03/21 05:16:09;;;;;;;35.28;27.95;;;6.40;43.90;;;;;;5043783;28;20086;-92
2022/03/21 05:18:35;;;;;;;35.33;29.23;;;6.40;43.90;;;;;;5025274;28;20033;-88
2022/03/21 05:21:02;;;;;;;34.08;27.10;;;6.50;44.70;;;;;;5025896;28;20197;-91
2022/03/21 05:31:41;;;;;;;39.72;29.95;;;6.50;44.10;;;;;;5028986;28;20481;-89
2022/03/21 05:36:53;;;;;;;40.15;29.08;;;6.60;44.30;;;;;;5027885;28;20025;-88
2022/03/21 05:39:19;;;;;;;36.50;29.23;;;6.60;44.30;;;;;;5029367;28;20041;-87
2022/03/21 05:41:46;;;;;;;39.08;30.92;;;6.60;44.30;;;;;;5045945;28;20180;-87
2022/03/21 05:44:12;;;;;;;39.63;30.65;;;6.60;44.90;;;;;;5027922;28;20565;-88
2022/03/21 05:46:39;;;;;;;39.88;32.25;;;6.70;44.50;;;;;;5031261;28;20050;-89
2022/03/21 05:49:05;;;;;;;40.50;29.75;;;6.70;44.50;;;;;;5027298;28;20460;-89
2022/03/21 05:51:36;;;;;;;42.78;32.03;;;6.70;44.50;;;;;;5035187;28;20025;-90
2022/03/21 05:54:11;;;;;;;40.22;31.35;;;6.80;44.70;;;;;;5031057;28;20026;-89
2022/03/21 05:56:38;;;;;;;39.75;31.95;;;6.80;44.60;;;;;;5023166;28;20396;-90
2022/03/21 06:01:50;;;;;;;43.10;31.33;;;6.80;44.70;;;;;;5029881;28;20068;-89
2022/03/21 06:04:17;;;;;;;38.05;31.30;;;6.80;44.70;;;;;;5030177;28;20041;-90
2022/03/21 06:06:43;;;;;;;38.67;29.90;;;6.90;44.90;;;;;;5035132;28;20033;-91
2022/03/21 06:09:10;;;;;;;36.08;29.83;;;6.90;44.90;;;;;;5042938;28;20052;-85
2022/03/21 06:11:36;;;;;;;39.65;32.13;;;6.90;44.90;;;;;;5024031;28;20044;-86
2022/03/21 06:14:04;;;;;;;41.08;32.03;;;6.90;44.90;;;;;;5023745;28;20099;-84
2022/03/21 06:16:34;;;;;;;42.45;33.60;;;6.90;44.90;;;;;;5025985;28;20029;-85
2022/03/21 06:19:01;;;;;;;44.05;33.65;;;7.00;45.10;;;;;;5027724;28;20025;-86
2022/03/21 06:21:30;;;;;;;42.65;32.60;;;7.00;45.10;;;;;;5030914;28;20037;-85
2022/03/21 06:23:59;;;;;;;41.13;32.47;;;7.00;45.10;;;;;;5024930;28;20017;-86
2022/03/21 06:26:25;;;;;;;41.50;33.15;;;7.00;45.10;;;;;;5022117;28;20067;-85
2022/03/21 06:28:51;;;;;;;41.50;30.92;;;7.00;45.10;;;;;;5020149;28;20053;-87
2022/03/21 06:31:17;;;;;;;42.42;31.33;;;7.00;45.10;;;;;;5025865;28;20330;-85
2022/03/21 06:33:43;;;;;;;41.22;32.60;;;7.10;45.80;;;;;;5037144;28;20044;-91
2022/03/21 06:36:11;;;;;;;40.53;31.75;;;7.10;45.30;;;;;;5019258;28;20463;-83
2022/03/21 06:38:37;;;;;;;43.08;33.65;;;7.10;45.30;;;;;;5024657;28;20091;-88
2022/03/21 06:41:05;;;;;;;43.88;33.28;;;7.20;45.40;;;;;;5016477;28;20037;-87
2022/03/21 06:43:31;;;;;;;41.83;33.72;;;7.20;45.40;;;;;;5017765;28;20436;-87
2022/03/21 06:45:57;;;;;;;42.15;34.17;;;7.20;45.40;;;;;;5021739;28;20100;-85
2022/03/21 06:48:24;;;;;;;42.42;33.13;;;7.20;45.40;;;;;;5041593;28;20041;-81
2022/03/21 06:50:53;;;;;;;41.15;32.53;;;7.30;45.70;;;;;;5038897;28;20381;-86
2022/03/21 06:53:19;;;;;;;41.28;30.42;;;7.30;45.60;;;;;;5013055;28;20025;-93
2022/03/21 06:55:46;;;;;;;48.42;34.17;;;7.30;45.60;;;;;;5047532;28;20040;-88
2022/03/21 06:58:13;;;;;;;46.40;33.80;;;7.40;45.80;;;;;;5031233;28;20392;-87
2022/03/21 07:00:44;;;;;;;46.17;36.65;;;7.40;46.00;;;;;;5020133;28;20026;-85
2022/03/21 07:03:11;;;;;;;51.35;36.00;;;7.40;46.10;;;;;;5019950;28;20038;-88
2022/03/21 07:05:37;;;;;;;44.72;35.25;;;7.40;46.10;;;;;;5025049;28;20053;-88
2022/03/21 07:08:04;;;;;;;45.55;36.42;;;7.40;46.20;;;;;;5021146;28;20353;-88
2022/03/21 07:10:33;;;;;;;48.08;36.55;;;7.50;46.50;;;;;;5036804;28;20026;-80
2022/03/21 07:13:01;;;;;;;48.15;36.47;;;7.50;46.60;;;;;;5019676;28;20029;-90
2022/03/21 07:15:27;;;;;;;50.58;36.60;;;7.50;46.70;;;;;;5017782;28;20443;-85
2022/03/21 07:17:55;;;;;;;44.60;35.75;;;7.50;46.70;;;;;;5036573;28;20033;-85
2022/03/21 07:20:21;;;;;;;49.15;37.60;;;7.50;46.80;;;;;;5020435;28;20029;-82
2022/03/21 07:22:47;;;;;;;48.35;37.53;;;7.60;47.00;;;;;;5031678;28;20073;-80
2022/03/21 07:25:13;;;;;;;48.47;38.53;;;7.60;47.10;;;;;;5024098;28;20522;-80
2022/03/21 07:27:43;;;;;;;49.28;36.83;;;7.60;47.10;;;;;;5014903;28;20138;-79
2022/03/21 07:30:12;;;;;;;51.92;36.60;;;7.60;47.20;;;;;;5039188;28;20041;-80
2022/03/21 07:32:39;;;;;;;40.25;32.15;;;7.60;47.20;;;;;;5023993;28;20041;-82
2022/03/21 07:35:05;;;;;;;41.58;31.77;;;7.70;47.90;;;;;;5036206;28;20041;-81
2022/03/21 07:37:42;;;;;;;38.95;32.00;;;7.80;49.20;;;;;;5020486;28;20048;-84
2022/03/21 07:40:11;;;;;;;39.50;32.53;;;8.00;50.40;;;;;;5022079;28;20033;-84
2022/03/21 07:42:38;;;;;;;41.65;32.22;;;8.10;50.50;;;;;;5018858;28;20046;-90
2022/03/21 07:47:51;;;;;;;41.75;32.13;;;8.30;51.00;;;;;;5035688;28;20493;-91
2022/03/21 07:50:19;;;;;;;42.22;32.63;;;8.30;50.90;;;;;;5024208;28;20041;-85
2022/03/21 07:52:45;;;;;;;38.60;31.05;;;8.40;51.10;;;;;;5038136;28;20283;-85
2022/03/21 07:55:12;;;;;;;39.70;32.78;;;8.40;51.00;;;;;;5023695;28;20029;-87
2022/03/21 07:57:38;;;;;;;40.55;31.67;;;8.40;51.00;;;;;;5022336;28;20116;-86
2022/03/21 08:00:05;;;;;;;44.65;32.33;;;8.50;51.10;;;;;;5018803;28;20034;-86
2022/03/21 08:02:38;;;;;;;43.65;33.67;;;8.60;51.20;;;;;;5021410;28;20052;-84
2022/03/21 08:05:06;;;;;;;43.10;34.33;;;8.60;51.10;;;;;;5021328;28;20072;-82
2022/03/21 08:07:32;;;;;;;39.65;32.58;;;8.60;51.00;;;;;;5016012;28;20152;-82
2022/03/21 08:09:58;;;;;;;39.08;31.95;;;8.70;51.10;;;;;;5022333;28;20357;-82
2022/03/21 08:12:24;;;;;;;42.58;32.72;;;8.70;51.00;;;;;;5037020;28;20037;-84
2022/03/21 08:14:51;;;;;;;41.08;32.92;;;8.70;50.90;;;;;;5016252;28;20021;-83
2022/03/21 08:17:18;;;;;;;39.30;33.65;;;8.70;50.80;;;;;;5020812;28;20033;-84
2022/03/21 08:19:45;;;;;;;38.75;32.10;;;8.80;50.90;;;;;;5012820;28;20065;-87
2022/03/21 08:22:11;;;;;;;40.88;31.90;;;8.90;51.00;;;;;;5021131;28;20064;-87
2022/03/21 08:24:37;;;;;;;43.33;33.25;;;8.90;50.80;;;;;;5021068;28;20032;-83
2022/03/21 08:27:05;;;;;;;38.53;31.77;;;8.90;50.70;;;;;;5019493;28;20022;-83
2022/03/21 08:29:31;;;;;;;41.13;31.90;;;9.00;50.80;;;;;;5020834;28;20033;-82
2022/03/21 08:31:57;;;;;;;39.13;32.88;;;9.10;50.80;;;;;;5022893;28;20555;-81
2022/03/21 08:34:23;;;;;;;41.67;33.58;;;9.10;50.70;;;;;;5023440;28;20170;-80
2022/03/21 08:36:50;;;;;;;40.70;33.83;;;9.10;50.50;;;;;;5022426;28;20037;-83
2022/03/21 08:39:16;;;;;;;42.47;34.35;;;9.20;50.50;;;;;;5023729;28;20029;-83
2022/03/21 08:41:42;;;;;;;40.08;33.08;;;9.30;50.60;;;;;;5022872;28;20044;-92
2022/03/21 08:44:08;;;;;;;41.20;32.83;;;9.40;50.60;;;;;;5023074;28;20308;-88
2022/03/21 08:46:34;;;;;;;41.90;33.90;;;9.50;50.70;;;;;;5023453;28;20386;-92
2022/03/21 08:51:46;;;;;;;39.92;32.75;;;9.70;50.60;;;;;;5023508;28;20099;-91
2022/03/21 08:54:12;;;;;;;38.58;33.05;;;9.80;50.50;;;;;;5020913;28;20026;-88
2022/03/21 08:56:38;;;;;;;42.88;32.50;;;10.00;50.60;;;;;;5015828;28;20052;-93
2022/03/21 08:59:04;;;;;;;39.97;33.42;;;10.10;50.50;;;;;;5024158;28;20026;-90
2022/03/21 09:01:29;;;;;;;42.00;34.25;;;10.30;50.50;;;;;;5025041;28;20084;-91
2022/03/21 09:03:55;;;;;;;41.63;33.75;;;10.40;50.40;;;;;;5022140;28;20034;-87
2022/03/21 09:06:22;;;;;;;38.63;31.45;;;10.60;50.40;;;;;;5022931;28;20056;-90
2022/03/21 09:08:49;;;;;;;41.78;33.65;;;10.70;50.20;;;;;;5038231;28;20032;-92
2022/03/21 09:11:17;;;;;;;36.17;31.45;;;10.90;50.30;;;;;;5040819;28;20041;-93
2022/03/21 09:13:47;;;;;;;36.45;31.27;;;11.00;50.30;;;;;;5028030;28;20056;-89
2022/03/21 09:16:14;;;;;;;39.40;33.67;;;11.10;50.20;;;;;;5024105;28;20026;-91
2022/03/21 09:18:43;;;;;;;38.90;32.05;;;11.20;50.10;;;;;;5023989;28;20029;-93
2022/03/21 09:21:09;;;;;;;40.10;32.17;;;11.40;50.30;;;;;;5021869;28;20050;-89
2022/03/21 09:23:35;;;;;;;40.13;33.80;;;11.50;50.20;;;;;;5023616;28;20033;-88
2022/03/21 09:26:03;;;;;;;41.55;33.28;;;11.60;50.10;;;;;;5024582;28;20030;-85
2022/03/21 09:28:30;;;;;;;38.33;32.33;;;11.70;50.10;;;;;;5015315;28;20041;-86
2022/03/21 09:30:56;;;;;;;39.10;31.83;;;11.80;50.00;;;;;;5014976;28;20394;-86
2022/03/21 09:33:22;;;;;;;42.58;32.33;;;11.90;50.00;;;;;;5021585;28;20070;-86
2022/03/21 09:35:48;;;;;;;37.00;31.35;;;12.10;50.10;;;;;;5003960;28;20116;-84
2022/03/21 09:38:15;;;;;;;36.45;32.47;;;12.10;49.90;;;;;;5020862;28;20076;-86
2022/03/21 09:40:43;;;;;;;41.28;32.85;;;12.20;49.90;;;;;;5019214;28;20033;-83
2022/03/21 09:43:10;;;;;;;37.75;32.63;;;12.30;49.90;;;;;;5022319;28;20041;-84
2022/03/21 09:45:36;;;;;;;38.65;31.65;;;12.30;49.70;;;;;;5023123;28;20552;-85
2022/03/21 09:48:12;;;;;;;40.05;32.65;;;12.40;49.70;;;;;;5021882;28;20420;-85
2022/03/21 09:50:44;;;;;;;36.78;31.65;;;12.40;49.70;;;;;;5020595;28;20057;-85
2022/03/21 09:53:12;;;;;;;37.95;31.92;;;12.50;49.70;;;;;;5020013;28;20030;-82
2022/03/21 09:55:39;;;;;;;40.80;32.38;;;12.50;49.60;;;;;;5024491;28;20404;-82
2022/03/21 09:58:05;;;;;;;38.13;31.20;;;12.60;49.70;;;;;;5022597;28;20603;-82
2022/03/21 10:00:32;;;;;;;39.80;32.67;;;12.70;49.70;;;;;;5022477;28;20043;-83
2022/03/21 10:02:59;;;;;;;37.42;32.67;;;12.70;49.60;;;;;;5036182;28;20045;-91
2022/03/21 10:05:32;;;;;;;36.42;31.65;;;12.80;49.70;;;;;;5020818;28;20030;-89
2022/03/21 10:08:09;;;;;;;;;;;12.90;49.60;;;;;;5021952;28;20353;-83
2022/03/21 10:10:35;;;;;;;40.60;31.63;;;13.00;49.60;;;;;;5030359;28;20331;-85
2022/03/21 10:13:02;;;;;;;38.40;33.70;;;13.20;49.80;;;;;;5021943;28;20038;-88
2022/03/21 10:15:29;;;;;;;38.33;31.80;;;13.30;49.70;;;;;;5038251;28;20212;-84
2022/03/21 10:18:06;;;;;;;36.03;30.90;;;13.40;49.70;;;;;;5017841;28;20464;-86
2022/03/21 10:20:33;;;;;;;35.75;29.77;;;13.50;49.50;;;;;;5039333;28;20528;-84
2022/03/21 10:23:18;;;;;;;35.88;31.20;;;13.60;49.50;;;;;;5024579;28;20029;-84
2022/03/21 10:25:44;;;;;;;37.60;30.73;;;13.80;49.60;;;;;;5023576;28;20029;-79
2022/03/21 10:28:30;;;;;;;35.97;29.65;;;13.80;49.40;;;;;;5017335;28;20029;-84
2022/03/21 10:30:56;;;;;;;37.38;32.28;;;13.90;49.40;;;;;;5015562;28;20079;-83
2022/03/21 10:33:25;;;;;;;34.65;29.05;;;14.00;49.40;;;;;;5022983;28;20033;-82
2022/03/21 10:35:51;;;;;;;36.17;31.02;;;14.10;49.40;;;;;;5014827;28;20406;-82
2022/03/21 10:38:34;;;;;;;37.28;30.40;;;14.10;49.30;;;;;;5022706;28;20064;-83
2022/03/21 10:41:08;;;;;;;36.35;30.92;;;14.20;49.30;;;;;;5016971;28;20033;-81
2022/03/21 10:43:34;;;;;;;38.42;31.08;;;14.30;49.40;;;;;;5033379;28;20071;-81
2022/03/21 10:46:02;;;;;;;38.20;31.92;;;14.30;49.30;;;;;;5023227;28;20057;-78
2022/03/21 10:48:33;;;;;;;36.05;31.90;;;14.30;49.20;;;;;;5003159;28;20137;-79
2022/03/21 10:51:01;;;;;;;35.95;31.27;;;14.40;49.30;;;;;;5022054;28;20076;-79
2022/03/21 10:53:38;;;;;;;37.78;30.75;;;14.40;49.20;;;;;;5025299;28;20660;-80
2022/03/21 10:56:09;;;;;;;36.30;30.92;;;14.50;49.30;;;;;;5024881;28;20031;-80
2022/03/21 10:58:37;;;;;;;32.92;29.40;;;14.60;49.30;;;;;;5020064;28;20472;-79
2022/03/21 11:01:13;;;;;;;34.90;30.38;;;14.70;49.30;;;;;;5040047;28;20026;-80
2022/03/21 11:03:41;;;;;;;34.67;29.35;;;14.80;49.20;;;;;;5023414;28;20519;-80
2022/03/21 11:06:11;;;;;;;37.75;31.52;;;14.90;49.20;;;;;;5039061;28;20025;-83
2022/03/21 11:08:39;;;;;;;35.65;29.77;;;15.00;49.20;;;;;;5049018;28;20044;-83
2022/03/21 11:11:06;;;;;;;33.60;30.00;;;15.10;49.20;;;;;;5045918;28;20025;-86
2022/03/21 11:13:32;;;;;;;32.80;28.70;;;15.20;49.20;;;;;;5049611;28;20325;-83
2022/03/21 11:15:59;;;;;;;37.00;31.10;;;15.30;49.10;;;;;;5047992;28;20038;-84
2022/03/21 11:18:28;;;;;;;33.00;29.42;;;15.50;49.20;;;;;;5050386;28;20067;-82
2022/03/21 11:20:56;;;;;;;32.60;29.08;;;15.60;49.10;;;;;;5047659;28;20044;-81
2022/03/21 11:23:25;;;;;;;33.55;29.75;;;15.80;49.20;;;;;;5042144;28;20073;-82
2022/03/21 11:26:33;;;;;;;34.42;30.75;;;16.00;49.20;;;;;;5047715;28;20028;-81
2022/03/21 11:29:17;;;;;;;34.97;28.60;;;16.10;48.90;;;;;;5033352;28;20307;-81
2022/03/21 11:32:10;;;;;;;34.35;28.80;;;16.30;49.10;;;;;;5026727;28;20582;-81
2022/03/21 11:34:58;;;;;;;32.33;28.83;;;16.60;49.10;;;;;;5026408;28;20033;-80
2022/03/21 11:37:25;;;;;;;35.65;29.75;;;16.70;49.00;;;;;;5020596;28;20799;-81
2022/03/21 11:40:28;;;;;;;34.13;28.13;;;16.90;49.20;;;;;;5025899;28;20098;-82
2022/03/21 11:43:19;;;;;;;31.10;27.67;;;17.00;48.90;;;;;;5022736;28;20166;-83
2022/03/21 11:45:55;;;;;;;33.55;28.02;;;17.10;49.00;;;;;;5015645;28;20081;-81
2022/03/21 11:48:25;;;;;;;33.22;27.55;;;17.30;49.20;;;;;;5025007;28;20051;-81
2022/03/21 11:50:57;;;;;;;32.00;28.50;;;17.40;49.10;;;;;;5024113;28;20100;-82
2022/03/21 11:53:32;;;;;;;31.83;28.45;;;17.50;48.90;;;;;;5019990;28;20029;-78
2022/03/21 11:55:59;;;;;;;33.28;28.77;;;17.70;49.10;;;;;;5008524;28;20029;-79
2022/03/21 11:58:28;;;;;;;30.70;25.95;;;17.80;49.00;;;;;;5015228;28;20095;-79
2022/03/21 12:01:09;;;;;;;29.67;26.45;;;17.90;49.00;;;;;;5019100;28;20060;-78
2022/03/21 12:03:36;;;;;;;30.00;26.88;;;18.10;48.90;;;;;;5002521;28;20037;-79
2022/03/21 12:06:19;;;;;;;30.40;27.02;;;18.20;49.00;;;;;;5016363;28;20208;-80
2022/03/21 12:08:52;;;;;;;;;;;18.40;48.90;;;;;;5025378;28;20068;-83
2022/03/21 12:11:50;;;;;;;37.30;27.40;;;18.50;49.10;;;;;;5025778;28;19920;-94
2022/03/21 12:14:22;;;;;;;31.65;28.20;;;18.60;49.00;;;;;;4986550;28;20446;-84
2022/03/21 12:17:11;;;;;;;26.30;23.50;;;18.70;49.10;;;;;;5029802;28;20021;-89
2022/03/21 12:19:58;;;;;;;26.13;23.40;;;18.90;49.20;;;;;;5025990;28;20072;-87
2022/03/21 12:22:47;;;;;;;26.95;24.02;;;19.00;49.30;;;;;;5032428;28;20219;-88
2022/03/21 12:25:15;;;;;;;26.25;23.45;;;19.20;49.40;;;;;;5032640;28;20104;-87
2022/03/21 12:27:55;;;;;;;26.73;23.95;;;19.30;49.40;;;;;;5038241;28;20034;-90
2022/03/21 12:30:21;;;;;;;27.27;24.50;;;19.40;49.30;;;;;;5025944;28;20089;-93
2022/03/21 12:32:57;;;;;;;26.63;23.83;;;19.50;49.40;;;;;;5036888;28;20395;-88
2022/03/21 12:35:32;;;;;;;27.77;24.80;;;19.60;49.40;;;;;;5036236;28;20033;-91
2022/03/21 12:38:11;;;;;;;26.38;22.83;;;19.70;49.30;;;;;;5038173;28;20033;-92
2022/03/21 12:40:50;;;;;;;27.50;24.55;;;19.80;49.40;;;;;;5026195;28;20045;-88
2022/03/21 12:43:37;;;;;;;27.80;24.98;;;19.90;49.50;;;;;;5025571;28;20034;-90
2022/03/21 12:46:09;;;;;;;26.77;23.98;;;19.90;49.30;;;;;;5008907;28;20624;-87
2022/03/21 12:48:38;;;;;;;27.20;24.40;;;20.10;49.50;;;;;;5022622;28;20437;-87
2022/03/21 12:51:06;;;;;;;27.73;23.83;;;20.10;49.30;;;;;;5014144;28;20348;-86
2022/03/21 12:53:45;;;;;;;28.88;25.88;;;20.20;49.30;;;;;;5023427;28;20071;-84
2022/03/21 12:56:14;;;;;;;26.95;24.05;;;20.30;49.10;;;;;;5012361;28;20081;-93
2022/03/21 12:58:45;;;;;;;26.30;23.48;;;20.40;49.20;;;;;;5015297;28;20115;-88
2022/03/21 13:01:19;;;;;;;28.42;25.52;;;20.50;49.20;;;;;;5031746;28;20033;-89
2022/03/21 13:03:46;;;;;;;29.10;26.00;;;20.70;49.30;;;;;;5023197;28;20095;-85
2022/03/21 13:11:47;;;;;;;28.38;25.30;;;21.10;49.30;;;;;;5023151;28;20041;-83